ADDS METAR Data INFO
IDs: Format: Raw Decoded Include TAF

Data at: 2158 UTC 24 Feb 2018

PATQ 242156Z AUTO 27024KT 1/4SM -SN FZFG M21/M23 A2969 RMK AO2 PK WND 26028/2153 SLPNO P0000 T12111233 FZRANO TSNO $
PATQ 242136Z AUTO 27024KT 1/4SM -SN FZFG M22/M24 A2970 RMK AO2 PK WND 27027/2133 P0000 FZRANO TSNO $
PATQ 242109Z AUTO 26023KT 1/2SM -SN FZFG M22/M24 A2971 RMK AO2 PK WND 26027/2103 P0000 FZRANO TSNO $
PATQ 242056Z AUTO 26023KT 1/4SM -SN FZFG M22/M24 A2971 RMK AO2 PK WND 26026/2056 SLP067 P0000 60000 T12171239 58012 FZRANO TSNO $
PATQ 242012Z AUTO 27023KT 1/4SM -SN FZFG M22/M24 A2971 RMK AO2 P0000 FZRANO TSNO $
PATQ 241956Z AUTO 27021KT 1/2SM SN M23/M26 A2972 RMK AO2 SLP070 P0000 T12281256 FZRANO TSNO $
PATQ 241939Z AUTO 26021KT 1/2SM -SN FZFG M23/M26 A2972 RMK AO2 P0000 FZRANO TSNO $
PATQ 241856Z AUTO 26020KT 3/4SM -SN BR M24/M26 A2973 RMK AO2 SLP075 P0000 T12391261 FZRANO TSNO $
PATQ 241843Z AUTO 26019KT 1SM -SN BR M24/M26 A2973 RMK AO2 P0000 FZRANO TSNO $
PATQ 241823Z AUTO 27018KT 1 1/2SM -SN M24/M27 A2974 RMK AO2 P0000 FZRANO TSNO $
PATQ 241808Z AUTO 27017KT 2 1/2SM -SN BR M24/M26 A2973 RMK AO2 P0000 FZRANO TSNO $
PATQ 241756Z AUTO 28017KT 1 1/2SM -SN BR M24/M26 A2974 RMK AO2 SNB1657 SLP078 P0000 60000 T12391261 11150 21239 58006 FZRANO TSNO $
PATQ 241724Z AUTO 28017KT 2 1/2SM -SN BR M24/M26 A2974 RMK AO2 SNB1657 P0000 FZRANO TSNO $
PATQ 241656Z AUTO 27015KT 4SM BR M24/M26 A2975 RMK AO2 SLP080 T12391261 FZRANO TSNO $
PATQ 241556Z AUTO 29015KT 9SM M22/M24 A2975 RMK AO2 SNE52 SLP082 P0000 T12221244 FZRANO TSNO $
PATQ 241546Z AUTO 30013KT 3SM -SN BR M22/M24 A2975 RMK AO2 P0000 FZRANO TSNO $
PATQ 241531Z AUTO 29017KT 1 1/2SM -SN BR M21/M23 A2975 RMK AO2 P0000 FZRANO TSNO $
PATQ 241522Z AUTO 30017KT 2SM -SN BR M20/M22 A2976 RMK AO2 P0000 FZRANO TSNO $
PATQ 241456Z AUTO 31015KT 3SM -SN BR M19/M22 A2976 RMK AO2 SLP084 P0000 60000 T11941217 58009 FZRANO TSNO $
PATQ 241356Z AUTO 31013KT 7SM -SN M18/M20 A2977 RMK AO2 SNB55 SLP088 P0000 T11831200 FZRANO TSNO $
PATQ 241256Z AUTO 33009KT 10SM M17/M19 A2978 RMK AO2 WSHFT 1151 SNE10 SLP090 P0000 T11721189 FZRANO TSNO $
PATQ 241211Z AUTO 34010KT 9SM M17/M18 A2979 RMK AO2 WSHFT 1151 SNE10 P0000 FZRANO TSNO $
PATQ 241156Z AUTO 31014KT 4SM -SN A2978 RMK AO2 SLPNO P0000 60000 58017 FZRANO TSNO $
PATQ 241056Z AUTO 27015KT 5SM -SN A2980 RMK AO2 SLPNO P0000 FZRANO TSNO $
PATQ 240956Z AUTO 27014KT 7SM -SN A2982 RMK AO2 SLPNO P0000 FZRANO TSNO $
PATQ 240856Z AUTO 26015KT 7SM -SN M14/M16 A2984 RMK AO2 SLP111 P0000 60000 T11441161 411441183 56005 FZRANO TSNO $
PATQ 240756Z AUTO 26016KT 3SM -SN BR M14/M16 A2984 RMK AO2 SLP113 P0000 T11441161 FZRANO TSNO $
PATQ 240752Z AUTO 26015KT 3SM -SN BR M14/M16 A2984 RMK AO2 P0000 FZRANO TSNO $
PATQ 240729Z AUTO 26012KT 2 1/2SM -SN BR M15/M17 A2985 RMK AO2 VIS 2V3 P0000 FZRANO TSNO $
PATQ 240656Z AUTO 26015KT 7SM -SN M15/M17 A2985 RMK AO2 SLP116 P0000 T11501167 FZRANO TSNO $
PATQ 240556Z AUTO 26014KT 9SM -SN M15/M17 A2987 RMK AO2 SLP123 P0000 60000 T11501167 11150 21156 56018 FZRANO TSNO $
PATQ 240456Z AUTO 26014KT 8SM -SN M15/M17 A2988 RMK AO2 SLP124 P0000 T11501167 FZRANO TSNO $
PATQ 240356Z AUTO 26015KT 5SM -SN BR M15/M17 A2990 RMK AO2 SLP133 P0000 T11501167 FZRANO TSNO $
PATQ 240256Z AUTO 26015KT 4SM -SN BR M16/M17 A2993 RMK AO2 SLP141 P0000 60000 T11561172 58009 FZRANO TSNO $
PATQ 240243Z AUTO 25015KT 4SM -SN BR M15/M17 A2993 RMK AO2 P0000 FZRANO TSNO $
PATQ 240156Z AUTO 26017KT 2 1/2SM -SN BR M16/M17 A2995 RMK AO2 VIS 2V3 SLP150 P0000 T11561172 FZRANO TSNO $
PATQ 240153Z AUTO 26017KT 2SM -SN BR M16/M17 A2995 RMK AO2 VIS 1 1/2V3 P0000 FZRANO TSNO $
PATQ 240139Z AUTO 26017KT 1 3/4SM -SN BR M16/M17 A2995 RMK AO2 P0000 FZRANO TSNO $
PATQ 240056Z AUTO 27016KT 2SM -SN BR M16/M17 A2995 RMK AO2 VIS 1 1/2V2 1/2 SLP149 P0000 T11561172 FZRANO TSNO $
PATQ 240042Z AUTO 27019KT 1SM -SN BR M16/M17 A2996 RMK AO2 P0000 FZRANO TSNO $
PATQ 240034Z AUTO 27018KT 3/4SM -SN BR M16/M17 A2996 RMK AO2 P0000 FZRANO TSNO $
PATQ 240005Z AUTO 27018KT 1 1/2SM -SN BR M16/M17 A2997 RMK AO2 VIS 1V2 P0000 FZRANO TSNO $
PATQ 232356Z AUTO 27019KT 1SM -SN BR M16/M17 A2997 RMK AO2 SLP154 P0000 60000 T11561172 11156 21178 58004 FZRANO TSNO $
PATQ 232347Z AUTO 27018KT 1 1/4SM -SN BR M16/M17 A2997 RMK AO2 P0000 FZRANO TSNO $
PATQ 232337Z AUTO 27019KT 1SM -SN BR M16/M17 A2997 RMK AO2 P0000 FZRANO TSNO $
PATQ 232330Z AUTO 27020KT 3/4SM -SN BR M16/M17 A2997 RMK AO2 P0000 FZRANO TSNO $
PATQ 232318Z AUTO 27021KT 1/2SM -SN FZFG M16/M17 A2998 RMK AO2 P0000 FZRANO TSNO $
PATQ 232304Z AUTO 26019KT 1SM -SN BR M16/M17 A2998 RMK AO2 P0000 FZRANO TSNO $
PATQ 232256Z AUTO 26019KT 1 1/4SM -SN BR M16/M17 A2998 RMK AO2 SLP160 P0000 T11561172 FZRANO TSNO $
PATQ 232223Z AUTO 27017KT 1 1/4SM -SN BR M16/M17 A2999 RMK AO2 P0000 FZRANO TSNO $
PATQ 232218Z AUTO 27018KT 3/4SM -SN BR M16/M17 A2999 RMK AO2 P0000 FZRANO TSNO $
PATQ 232206Z AUTO 26019KT 1SM -SN BR M16/M17 A2998 RMK AO2 P0000 FZRANO TSNO $
PATQ 232156Z AUTO 26019KT 3/4SM -SN BR M16/M18 A2998 RMK AO2 SLP159 P0000 T11561178 FZRANO TSNO $
PATQ 232143Z AUTO 25017KT 1 1/4SM -SN BR M16/M18 A2998 RMK AO2 P0000 FZRANO TSNO $
PATQ 232122Z AUTO 25017KT 1SM -SN BR M16/M18 A2999 RMK AO2 P0000 FZRANO TSNO $
PATQ 232109Z AUTO 25018KT 3/4SM -SN BR M17/M18 A2999 RMK AO2 P0000 FZRANO TSNO $
PATQ 232056Z AUTO 25018KT 1SM -SN BR M17/M18 A2999 RMK AO2 SLP162 P0000 60000 T11671183 50000 FZRANO TSNO $
PATQ 232018Z AUTO 25018KT 1SM -SN BR M17/M19 A3000 RMK AO2 P0000 FZRANO TSNO $
PATQ 231956Z AUTO 26017KT 1 1/2SM -SN BR M17/M19 A2999 RMK AO2 SLP164 P0000 T11721189 FZRANO TSNO $
PATQ 231856Z AUTO 26020KT 1 1/4SM -SN BR M18/M19 A2999 RMK AO2 PK WND 27029/1834 SLP162 P0000 T11781194 FZRANO TSNO $
PATQ 231845Z AUTO 27024KT 3/4SM -SN BR M18/M19 A2999 RMK AO2 PK WND 27029/1834 P0000 FZRANO TSNO $
PATQ 231835Z AUTO 27026KT 1/2SM -SN FZFG M18/M19 A2998 RMK AO2 PK WND 27029/1834 P0000 FZRANO TSNO $
PATQ 231806Z AUTO 26023KT 1SM -SN BR M18/M19 A2999 RMK AO2 PK WND 26026/1804 P0000 FZRANO TSNO $
PATQ 231756Z AUTO 26023KT 1 1/2SM -SN BR M18/M19 A2999 RMK AO2 PK WND 26026/1746 SLP163 P0000 60000 T11781194 11167 21183 58001 FZRANO TSNO $
PATQ 231727Z AUTO 27022KT 1 3/4SM -SN BR M18/M20 A2999 RMK AO2 P0000 FZRANO TSNO $
PATQ 231709Z AUTO 27021KT 2 1/2SM -SN BR M18/M20 A2999 RMK AO2 P0000 FZRANO TSNO $
PATQ 231656Z AUTO 27023KT 1 1/4SM -SN BR M18/M20 A3000 RMK AO2 PK WND 27028/1649 SLP165 P0000 T11781200 FZRANO TSNO $
PATQ 231654Z AUTO 28022KT 1 1/4SM -SN BR M18/M20 A3000 RMK AO2 PK WND 27028/1649 P0000 FZRANO TSNO $
PATQ 231626Z AUTO 27019KT 2 1/2SM -SN BR M18/M20 A3000 RMK AO2 PK WND 27026/1612 VIS 2V4 P0000 FZRANO TSNO $
PATQ 231556Z AUTO 27023KT 1 1/4SM -SN BR M18/M20 A3000 RMK AO2 PK WND 27030/1509 SLP165 P0000 T11781200 FZRANO TSNO $
PATQ 231538Z AUTO 27023KT 1SM -SN BR M18/M20 A2999 RMK AO2 PK WND 27030/1509 P0000 FZRANO TSNO $
PATQ 231529Z AUTO 27024KT 3/4SM -SN BR M18/M20 A3000 RMK AO2 PK WND 27030/1509 P0000 FZRANO TSNO $
PATQ 231508Z AUTO 27028KT 1/2SM SN FZFG M18/M19 A2999 RMK AO2 PK WND 27030/1508 P0000 FZRANO TSNO $
PATQ 231456Z AUTO 27027KT 3/4SM -SN BR M17/M19 A2999 RMK AO2 PK WND 27029/1456 SLP163 P0000 60000 T11721189 51005 FZRANO TSNO $
PATQ 231451Z AUTO 27025KT 3/4SM -SN BR M17/M19 A2999 RMK AO2 PK WND 27029/1442 P0000 FZRANO TSNO $
PATQ 231443Z AUTO 28026G29KT 1SM -SN BR M17/M18 A2999 RMK AO2 PK WND 27029/1442 P0000 FZRANO TSNO $
PATQ 231408Z AUTO 26025KT 1 1/4SM -SN BR M17/M19 A2998 RMK AO2 PK WND 26027/1408 P0000 FZRANO TSNO $
PATQ 231356Z AUTO 26023KT 1SM -SN BR M17/M19 A2999 RMK AO2 PK WND 26028/1352 SLP161 P0000 T11721189 FZRANO TSNO $
PATQ 231314Z AUTO 26024KT 1SM -SN BR M17/M19 A2998 RMK AO2 PK WND 26027/1304 P0000 FZRANO TSNO $
PATQ 231256Z AUTO 26023KT 1 1/2SM -SN BR M17/M19 A2998 RMK AO2 PK WND 27029/1219 SLP158 P0000 T11721189 FZRANO TSNO $
PATQ 231247Z AUTO 26023KT 1 1/2SM -SN BR M17/M19 A2998 RMK AO2 PK WND 27029/1219 P0000 FZRANO TSNO $
PATQ 231226Z AUTO 27024KT 1SM -SN BR M17/M19 A2997 RMK AO2 PK WND 27029/1219 P0000 FZRANO TSNO $
PATQ 231218Z AUTO 27025KT 3/4SM -SN BR M17/M19 A2997 RMK AO2 PK WND 27028/1217 P0000 FZRANO TSNO $
PATQ 231211Z AUTO 27023KT 1SM -SN BR M17/M18 A2997 RMK AO2 PK WND 27027/1206 P0000 FZRANO TSNO $
PATQ 231156Z AUTO 28022KT 1 1/4SM -SN BR M17/M18 A2997 RMK AO2 PK WND 28031/1136 SLP156 P0000 60000 T11671183 11139 21167 51018 FZRANO TSNO $
PATQ 231148Z AUTO 28025KT 1SM -SN BR M16/M18 A2997 RMK AO2 PK WND 28031/1136 P0000 FZRANO TSNO $
PATQ 231126Z AUTO 27025KT 1/2SM SN FZFG M16/M18 A2996 RMK AO2 PK WND 27028/1124 P0000 FZRANO TSNO $
PATQ 231117Z AUTO 27024KT 3/4SM -SN BR M16/M17 A2996 RMK AO2 PK WND 27027/1117 P0000 FZRANO TSNO $
PATQ 231113Z AUTO 27021KT 1 3/4SM -SN BR M16/M17 A2996 RMK AO2 P0000 FZRANO TSNO $
PATQ 231104Z AUTO 28019KT 4SM -SN BR M16/M17 A2996 RMK AO2 P0000 FZRANO TSNO $
PATQ 231056Z AUTO 29019KT 2 1/2SM -SN BR M16/M17 A2996 RMK AO2 PK WND 29029/1018 VIS 1 3/4V4 SLP151 P0000 T11561172 FZRANO TSNO $
PATQ 231048Z AUTO 29020KT 2SM -SN BR M16/M17 A2995 RMK AO2 PK WND 29029/1018 VIS 1 3/4V3 P0000 FZRANO TSNO $
PATQ 231036Z AUTO 29021KT 1 1/4SM -SN BR M16/M17 A2995 RMK AO2 PK WND 29029/1018 P0000 FZRANO TSNO $
PATQ 231033Z AUTO 28024KT 3/4SM -SN BR M16/M17 A2995 RMK AO2 PK WND 29029/1018 P0000 FZRANO TSNO $
PATQ 231012Z AUTO 29023KT 1SM -SN BR M15/M17 A2994 RMK AO2 PK WND 29029/1005 P0000 FZRANO TSNO $